sensor_id;sensor_type;location;lat;lon;timestamp;pressure;altitude;pressure_sealevel;temperature
12126;BMP180;6126;57.908;16.490;2023-01-16T00:01:26;97842.31;;;5.32
12126;BMP180;6126;57.908;16.490;2023-01-16T00:03:53;97840.53;;;5.32
12126;BMP180;6126;57.908;16.490;2023-01-16T00:06:19;97834.47;;;5.33
12126;BMP180;6126;57.908;16.490;2023-01-16T00:08:45;97836.22;;;5.33
12126;BMP180;6126;57.908;16.490;2023-01-16T00:11:13;97841.41;;;5.33
12126;BMP180;6126;57.908;16.490;2023-01-16T00:13:39;97838.06;;;5.31
12126;BMP180;6126;57.908;16.490;2023-01-16T00:16:06;97835.50;;;5.31
12126;BMP180;6126;57.908;16.490;2023-01-16T00:18:32;97852.88;;;5.29
12126;BMP180;6126;57.908;16.490;2023-01-16T00:20:58;97849.47;;;5.28
12126;BMP180;6126;57.908;16.490;2023-01-16T00:23:24;97853.06;;;5.26
12126;BMP180;6126;57.908;16.490;2023-01-16T00:25:50;97860.94;;;5.24
12126;BMP180;6126;57.908;16.490;2023-01-16T00:28:16;97868.69;;;5.24
12126;BMP180;6126;57.908;16.490;2023-01-16T00:30:42;97874.59;;;5.26
12126;BMP180;6126;57.908;16.490;2023-01-16T00:33:09;97868.69;;;5.24
12126;BMP180;6126;57.908;16.490;2023-01-16T00:35:35;97877.19;;;5.26
12126;BMP180;6126;57.908;16.490;2023-01-16T00:38:01;97890.47;;;5.22
12126;BMP180;6126;57.908;16.490;2023-01-16T00:40:28;97887.97;;;5.21
12126;BMP180;6126;57.908;16.490;2023-01-16T00:42:54;97891.66;;;5.17
12126;BMP180;6126;57.908;16.490;2023-01-16T00:45:20;97900.38;;;5.16
12126;BMP180;6126;57.908;16.490;2023-01-16T00:47:45;97910.81;;;5.14
12126;BMP180;6126;57.908;16.490;2023-01-16T00:50:12;97912.56;;;5.14
12126;BMP180;6126;57.908;16.490;2023-01-16T00:52:38;97913.31;;;5.16
12126;BMP180;6126;57.908;16.490;2023-01-16T00:55:04;97906.50;;;5.15
12126;BMP180;6126;57.908;16.490;2023-01-16T00:57:30;97921.06;;;5.16
12126;BMP180;6126;57.908;16.490;2023-01-16T00:59:56;97926.25;;;5.16
12126;BMP180;6126;57.908;16.490;2023-01-16T01:02:22;97931.41;;;5.16
12126;BMP180;6126;57.908;16.490;2023-01-16T01:04:48;97925.41;;;5.15
12126;BMP180;6126;57.908;16.490;2023-01-16T01:07:14;97935.78;;;5.15
12126;BMP180;6126;57.908;16.490;2023-01-16T01:09:40;97935.78;;;5.15
12126;BMP180;6126;57.908;16.490;2023-01-16T01:12:05;97946.94;;;5.16
12126;BMP180;6126;57.908;16.490;2023-01-16T01:14:31;97950.34;;;5.16
12126;BMP180;6126;57.908;16.490;2023-01-16T01:16:57;97946.88;;;5.17
12126;BMP180;6126;57.908;16.490;2023-01-16T01:19:23;97964.03;;;5.18
12126;BMP180;6126;57.908;16.490;2023-01-16T01:21:49;97957.94;;;5.19
12126;BMP180;6126;57.908;16.490;2023-01-16T01:24:15;97962.28;;;5.19
12126;BMP180;6126;57.908;16.490;2023-01-16T01:26:41;97966.63;;;5.18
12126;BMP180;6126;57.908;16.490;2023-01-16T01:29:07;97970.25;;;5.16
12126;BMP180;6126;57.908;16.490;2023-01-16T01:31:32;97973.84;;;5.13
12126;BMP180;6126;57.908;16.490;2023-01-16T01:33:58;97963.69;;;5.10
12126;BMP180;6126;57.908;16.490;2023-01-16T01:36:24;97972.41;;;5.09
12126;BMP180;6126;57.908;16.490;2023-01-16T01:38:50;97982.00;;;5.07
12126;BMP180;6126;57.908;16.490;2023-01-16T01:41:17;97980.44;;;5.05
12126;BMP180;6126;57.908;16.490;2023-01-16T01:43:50;97987.47;;;5.03
12126;BMP180;6126;57.908;16.490;2023-01-16T01:46:48;98000.53;;;5.01
12126;BMP180;6126;57.908;16.490;2023-01-16T01:49:27;98008.38;;;5.00
12126;BMP180;6126;57.908;16.490;2023-01-16T01:51:59;98011.91;;;4.99
12126;BMP180;6126;57.908;16.490;2023-01-16T01:54:34;98011.03;;;4.98
12126;BMP180;6126;57.908;16.490;2023-01-16T01:57:18;98018.09;;;4.96
12126;BMP180;6126;57.908;16.490;2023-01-16T02:00:15;98026.75;;;4.95
12126;BMP180;6126;57.908;16.490;2023-01-16T02:03:05;98035.47;;;4.94
12126;BMP180;6126;57.908;16.490;2023-01-16T02:05:37;98029.66;;;4.91
12126;BMP180;6126;57.908;16.490;2023-01-16T02:08:07;98031.50;;;4.89
12126;BMP180;6126;57.908;16.490;2023-01-16T02:11:12;98036.94;;;4.85
12126;BMP180;6126;57.908;16.490;2023-01-16T02:14:13;98041.50;;;4.81
12126;BMP180;6126;57.908;16.490;2023-01-16T02:16:40;98044.97;;;4.80
12126;BMP180;6126;57.908;16.490;2023-01-16T02:40:48;98086.66;;;4.76
12126;BMP180;6126;57.908;16.490;2023-01-16T02:44:04;98103.84;;;4.77
12126;BMP180;6126;57.908;16.490;2023-01-16T02:53:17;98106.81;;;4.71
12126;BMP180;6126;57.908;16.490;2023-01-16T02:55:54;98105.22;;;4.68
12126;BMP180;6126;57.908;16.490;2023-01-16T02:58:24;98127.75;;;4.66
12126;BMP180;6126;57.908;16.490;2023-01-16T03:00:54;98131.53;;;4.61
12126;BMP180;6126;57.908;16.490;2023-01-16T03:06:30;98146.41;;;4.58
12126;BMP180;6126;57.908;16.490;2023-01-16T03:12:00;98140.56;;;4.54
12126;BMP180;6126;57.908;16.490;2023-01-16T03:25:58;98161.16;;;4.42
12126;BMP180;6126;57.908;16.490;2023-01-16T03:31:28;98170.56;;;4.43
12126;BMP180;6126;57.908;16.490;2023-01-16T03:34:13;98181.00;;;4.41
12126;BMP180;6126;57.908;16.490;2023-01-16T03:37:17;98180.28;;;4.39
12126;BMP180;6126;57.908;16.490;2023-01-16T03:40:02;98179.53;;;4.37
12126;BMP180;6126;57.908;16.490;2023-01-16T03:42:39;98174.34;;;4.37
12126;BMP180;6126;57.908;16.490;2023-01-16T03:45:21;98190.78;;;4.36
12126;BMP180;6126;57.908;16.490;2023-01-16T03:47:56;98195.97;;;4.36
12126;BMP180;6126;57.908;16.490;2023-01-16T03:50:26;98196.78;;;4.37
12126;BMP180;6126;57.908;16.490;2023-01-16T03:52:57;98203.59;;;4.38
12126;BMP180;6126;57.908;16.490;2023-01-16T03:55:49;98214.78;;;4.38
12126;BMP180;6126;57.908;16.490;2023-01-16T03:58:28;98204.44;;;4.38
12126;BMP180;6126;57.908;16.490;2023-01-16T04:07:04;98211.53;;;4.35
12126;BMP180;6126;57.908;16.490;2023-01-16T04:10:02;98210.16;;;4.29
12126;BMP180;6126;57.908;16.490;2023-01-16T04:12:35;98213.81;;;4.26
12126;BMP180;6126;57.908;16.490;2023-01-16T04:15:06;98219.91;;;4.25
12126;BMP180;6126;57.908;16.490;2023-01-16T04:17:38;98228.75;;;4.21
12126;BMP180;6126;57.908;16.490;2023-01-16T04:20:07;98235.66;;;4.20
12126;BMP180;6126;57.908;16.490;2023-01-16T04:22:33;98248.69;;;4.19
12126;BMP180;6126;57.908;16.490;2023-01-16T04:25:03;98246.94;;;4.19
12126;BMP180;6126;57.908;16.490;2023-01-16T04:27:31;98251.28;;;4.19
12126;BMP180;6126;57.908;16.490;2023-01-16T04:29:57;98265.09;;;4.18
12126;BMP180;6126;57.908;16.490;2023-01-16T04:32:22;98270.38;;;4.16
12126;BMP180;6126;57.908;16.490;2023-01-16T04:34:48;98275.53;;;4.16
12126;BMP180;6126;57.908;16.490;2023-01-16T04:37:16;98269.53;;;4.16
12126;BMP180;6126;57.908;16.490;2023-01-16T04:39:42;98273.84;;;4.15
12126;BMP180;6126;57.908;16.490;2023-01-16T04:42:09;98283.34;;;4.15
12126;BMP180;6126;57.908;16.490;2023-01-16T04:44:35;98276.53;;;4.14
12126;BMP180;6126;57.908;16.490;2023-01-16T04:47:01;98282.59;;;4.13
12126;BMP180;6126;57.908;16.490;2023-01-16T04:49:27;98281.03;;;4.10
12126;BMP180;6126;57.908;16.490;2023-01-16T04:51:53;98277.72;;;4.08
12126;BMP180;6126;57.908;16.490;2023-01-16T04:54:20;98288.88;;;4.09
12126;BMP180;6126;57.908;16.490;2023-01-16T04:56:46;98289.81;;;4.08
12126;BMP180;6126;57.908;16.490;2023-01-16T04:59:12;98297.78;;;4.03
12126;BMP180;6126;57.908;16.490;2023-01-16T05:01:42;98297.88;;;4.02
12126;BMP180;6126;57.908;16.490;2023-01-16T05:04:10;98306.59;;;3.99
12126;BMP180;6126;57.908;16.490;2023-01-16T05:06:37;98312.88;;;3.96
12126;BMP180;6126;57.908;16.490;2023-01-16T05:09:05;98314.69;;;3.94
12126;BMP180;6126;57.908;16.490;2023-01-16T05:11:32;98330.38;;;3.91
12126;BMP180;6126;57.908;16.490;2023-01-16T05:13:58;98327.78;;;3.91
12126;BMP180;6126;57.908;16.490;2023-01-16T05:16:24;98336.53;;;3.88
12126;BMP180;6126;57.908;16.490;2023-01-16T05:18:51;98342.63;;;3.87
12126;BMP180;6126;57.908;16.490;2023-01-16T05:21:16;98362.53;;;3.85
12126;BMP180;6126;57.908;16.490;2023-01-16T05:23:42;98350.59;;;3.83
12126;BMP180;6126;57.908;16.490;2023-01-16T05:26:09;98362.69;;;3.82
12126;BMP180;6126;57.908;16.490;2023-01-16T05:28:35;98364.50;;;3.80
12126;BMP180;6126;57.908;16.490;2023-01-16T05:31:02;98374.09;;;3.78
12126;BMP180;6126;57.908;16.490;2023-01-16T05:33:29;98373.25;;;3.78
12126;BMP180;6126;57.908;16.490;2023-01-16T05:35:55;98368.16;;;3.76
12126;BMP180;6126;57.908;16.490;2023-01-16T05:38:22;98381.16;;;3.75
12126;BMP180;6126;57.908;16.490;2023-01-16T05:40:48;98383.81;;;3.73
12126;BMP180;6126;57.908;16.490;2023-01-16T05:43:14;98401.06;;;3.73
12126;BMP180;6126;57.908;16.490;2023-01-16T05:45:40;98405.41;;;3.72
12126;BMP180;6126;57.908;16.490;2023-01-16T05:48:07;98402.81;;;3.72
12126;BMP180;6126;57.908;16.490;2023-01-16T05:50:33;98407.97;;;3.72
12126;BMP180;6126;57.908;16.490;2023-01-16T05:52:59;98415.63;;;3.74
12126;BMP180;6126;57.908;16.490;2023-01-16T05:55:25;98425.06;;;3.75
12126;BMP180;6126;57.908;16.490;2023-01-16T05:57:51;98421.66;;;3.74
12126;BMP180;6126;57.908;16.490;2023-01-16T06:00:18;98425.13;;;3.73
12126;BMP180;6126;57.908;16.490;2023-01-16T06:02:44;98418.31;;;3.72
12126;BMP180;6126;57.908;16.490;2023-01-16T06:05:12;98428.63;;;3.72
12126;BMP180;6126;57.908;16.490;2023-01-16T06:07:38;98435.63;;;3.70
12126;BMP180;6126;57.908;16.490;2023-01-16T06:10:05;98426.22;;;3.69
12126;BMP180;6126;57.908;16.490;2023-01-16T06:12:31;98422.81;;;3.69
12126;BMP180;6126;57.908;16.490;2023-01-16T06:14:58;98444.19;;;3.71
12126;BMP180;6126;57.908;16.490;2023-01-16T06:17:24;98451.88;;;3.72
12126;BMP180;6126;57.908;16.490;2023-01-16T06:19:49;98446.72;;;3.72
12126;BMP180;6126;57.908;16.490;2023-01-16T06:22:15;98459.63;;;3.72
12126;BMP180;6126;57.908;16.490;2023-01-16T06:24:42;98459.47;;;3.75
12126;BMP180;6126;57.908;16.490;2023-01-16T06:27:08;98459.63;;;3.72
12126;BMP180;6126;57.908;16.490;2023-01-16T06:29:34;98466.63;;;3.70
12126;BMP180;6126;57.908;16.490;2023-01-16T06:32:00;98464.97;;;3.69
12126;BMP180;6126;57.908;16.490;2023-01-16T06:34:27;98466.63;;;3.70
12126;BMP180;6126;57.908;16.490;2023-01-16T06:36:52;98471.88;;;3.69
12126;BMP180;6126;57.908;16.490;2023-01-16T06:39:18;98477.88;;;3.69
12126;BMP180;6126;57.908;16.490;2023-01-16T06:41:44;98485.63;;;3.69
12126;BMP180;6126;57.908;16.490;2023-01-16T06:44:10;98488.25;;;3.68
12126;BMP180;6126;57.908;16.490;2023-01-16T06:46:36;98502.91;;;3.67
12126;BMP180;6126;57.908;16.490;2023-01-16T06:49:02;98497.81;;;3.66
12126;BMP180;6126;57.908;16.490;2023-01-16T06:51:29;98512.41;;;3.67
12126;BMP180;6126;57.908;16.490;2023-01-16T06:53:55;98509.91;;;3.66
12126;BMP180;6126;57.908;16.490;2023-01-16T06:56:20;98522.91;;;3.64
12126;BMP180;6126;57.908;16.490;2023-01-16T06:58:46;98507.41;;;3.64
12126;BMP180;6126;57.908;16.490;2023-01-16T07:01:12;98522.06;;;3.64
12126;BMP180;6126;57.908;16.490;2023-01-16T07:03:38;98520.31;;;3.64
12126;BMP180;6126;57.908;16.490;2023-01-16T07:06:04;98516.81;;;3.65
12126;BMP180;6126;57.908;16.490;2023-01-16T07:08:30;98528.81;;;3.66
12126;BMP180;6126;57.908;16.490;2023-01-16T07:11:00;98527.91;;;3.67
12126;BMP180;6126;57.908;16.490;2023-01-16T07:13:26;98533.06;;;3.67
12126;BMP180;6126;57.908;16.490;2023-01-16T07:15:55;98541.66;;;3.67
12126;BMP180;6126;57.908;16.490;2023-01-16T07:18:40;98551.06;;;3.68
12126;BMP180;6126;57.908;16.490;2023-01-16T07:21:38;98556.94;;;3.72
12126;BMP180;6126;57.908;16.490;2023-01-16T07:24:27;98573.25;;;3.72
12126;BMP180;6126;57.908;16.490;2023-01-16T07:26:59;98564.75;;;3.70
12126;BMP180;6126;57.908;16.490;2023-01-16T07:29:30;98578.41;;;3.72
12126;BMP180;6126;57.908;16.490;2023-01-16T07:31:59;98587.81;;;3.73
12126;BMP180;6126;57.908;16.490;2023-01-16T07:34:26;98597.31;;;3.73
12126;BMP180;6126;57.908;16.490;2023-01-16T07:36:52;98612.75;;;3.74
12126;BMP180;6126;57.908;16.490;2023-01-16T07:39:18;98607.44;;;3.77
12126;BMP180;6126;57.908;16.490;2023-01-16T07:41:44;98630.59;;;3.79
12126;BMP180;6126;57.908;16.490;2023-01-16T07:44:10;98619.28;;;3.81
12126;BMP180;6126;57.908;16.490;2023-01-16T07:46:36;98637.44;;;3.80
12126;BMP180;6126;57.908;16.490;2023-01-16T07:49:02;98639.03;;;3.82
12126;BMP180;6126;57.908;16.490;2023-01-16T07:51:28;98651.97;;;3.82
12126;BMP180;6126;57.908;16.490;2023-01-16T07:53:54;98651.97;;;3.82
12126;BMP180;6126;57.908;16.490;2023-01-16T07:56:20;98657.03;;;3.84
12126;BMP180;6126;57.908;16.490;2023-01-16T07:58:46;98669.78;;;3.87
12126;BMP180;6126;57.908;16.490;2023-01-16T08:01:12;98666.06;;;3.92
12126;BMP180;6126;57.908;16.490;2023-01-16T08:03:38;98668.53;;;3.95
12126;BMP180;6126;57.908;16.490;2023-01-16T08:06:04;98670.25;;;3.95
12126;BMP180;6126;57.908;16.490;2023-01-16T08:08:31;98678.94;;;3.94
12126;BMP180;6126;57.908;16.490;2023-01-16T08:11:00;98688.34;;;3.95
12126;BMP180;6126;57.908;16.490;2023-01-16T08:13:46;98696.97;;;3.95
12126;BMP180;6126;57.908;16.490;2023-01-16T08:16:12;98699.53;;;3.95
12126;BMP180;6126;57.908;16.490;2023-01-16T08:18:38;98698.63;;;3.96
12126;BMP180;6126;57.908;16.490;2023-01-16T08:21:04;98703.72;;;3.98
12126;BMP180;6126;57.908;16.490;2023-01-16T08:23:30;98703.72;;;3.98
12126;BMP180;6126;57.908;16.490;2023-01-16T08:25:55;98707.91;;;4.00
12126;BMP180;6126;57.908;16.490;2023-01-16T08:28:26;98711.31;;;4.00
12126;BMP180;6126;57.908;16.490;2023-01-16T08:30:52;98724.16;;;4.02
12126;BMP180;6126;57.908;16.490;2023-01-16T08:33:18;98723.53;;;3.97
12126;BMP180;6126;57.908;16.490;2023-01-16T08:35:44;98725.22;;;3.98
12126;BMP180;6126;57.908;16.490;2023-01-16T08:38:09;98727.56;;;4.02
12126;BMP180;6126;57.908;16.490;2023-01-16T08:40:35;98728.28;;;4.06
12126;BMP180;6126;57.908;16.490;2023-01-16T08:43:03;98740.28;;;4.07
12126;BMP180;6126;57.908;16.490;2023-01-16T08:45:47;98741.03;;;4.09
12126;BMP180;6126;57.908;16.490;2023-01-16T08:48:51;98738.47;;;4.09
12126;BMP180;6126;57.908;16.490;2023-01-16T08:51:37;98752.16;;;4.11
12126;BMP180;6126;57.908;16.490;2023-01-16T08:54:04;98764.09;;;4.13
12126;BMP180;6126;57.908;16.490;2023-01-16T08:56:30;98764.00;;;4.15
12126;BMP180;6126;57.908;16.490;2023-01-16T08:58:56;98769.88;;;4.18
12126;BMP180;6126;57.908;16.490;2023-01-16T09:01:23;98787.88;;;4.20
12126;BMP180;6126;57.908;16.490;2023-01-16T09:03:49;98792.06;;;4.22
12126;BMP180;6126;57.908;16.490;2023-01-16T09:06:15;98792.00;;;4.24
12126;BMP180;6126;57.908;16.490;2023-01-16T09:08:41;98797.03;;;4.27
12126;BMP180;6126;57.908;16.490;2023-01-16T09:11:06;98805.56;;;4.29
12126;BMP180;6126;57.908;16.490;2023-01-16T09:13:52;98792.47;;;4.31
12126;BMP180;6126;57.908;16.490;2023-01-16T09:16:24;98806.91;;;4.35
12126;BMP180;6126;57.908;16.490;2023-01-16T09:18:51;98812.03;;;4.37
12126;BMP180;6126;57.908;16.490;2023-01-16T09:21:17;98817.88;;;4.40
12126;BMP180;6126;57.908;16.490;2023-01-16T09:23:45;98810.13;;;4.40
12126;BMP180;6126;57.908;16.490;2023-01-16T09:26:12;98806.69;;;4.40
12126;BMP180;6126;57.908;16.490;2023-01-16T09:28:37;98816.22;;;4.39
12126;BMP180;6126;57.908;16.490;2023-01-16T09:31:04;98817.09;;;4.38
12126;BMP180;6126;57.908;16.490;2023-01-16T09:33:30;98823.25;;;4.36
12126;BMP180;6126;57.908;16.490;2023-01-16T09:35:56;98823.19;;;4.37
12126;BMP180;6126;57.908;16.490;2023-01-16T09:38:22;98847.38;;;4.36
12126;BMP180;6126;57.908;16.490;2023-01-16T09:40:54;98847.38;;;4.36
12126;BMP180;6126;57.908;16.490;2023-01-16T09:51:22;98863.44;;;4.43
12126;BMP180;6126;57.908;16.490;2023-01-16T09:54:10;98856.34;;;4.46
12126;BMP180;6126;57.908;16.490;2023-01-16T09:57:04;98855.47;;;4.47
12126;BMP180;6126;57.908;16.490;2023-01-16T09:59:55;98869.13;;;4.49
12126;BMP180;6126;57.908;16.490;2023-01-16T10:02:29;98879.41;;;4.51
12126;BMP180;6126;57.908;16.490;2023-01-16T10:05:02;98875.03;;;4.53
12126;BMP180;6126;57.908;16.490;2023-01-16T10:07:49;98874.03;;;4.55
12126;BMP180;6126;57.908;16.490;2023-01-16T10:16:18;98868.25;;;4.67
12126;BMP180;6126;57.908;16.490;2023-01-16T10:28:36;98879.88;;;4.93
12126;BMP180;6126;57.908;16.490;2023-01-16T10:31:20;98899.34;;;5.00
12126;BMP180;6126;57.908;16.490;2023-01-16T10:34:23;98895.69;;;5.04
12126;BMP180;6126;57.908;16.490;2023-01-16T10:36:56;98904.81;;;5.11
12126;BMP180;6126;57.908;16.490;2023-01-16T10:39:33;98903.69;;;5.17
12126;BMP180;6126;57.908;16.490;2023-01-16T10:42:12;98904.38;;;5.20
12126;BMP180;6126;57.908;16.490;2023-01-16T10:47:59;98906.59;;;5.27
12126;BMP180;6126;57.908;16.490;2023-01-16T10:50:45;98908.19;;;5.30
12126;BMP180;6126;57.908;16.490;2023-01-16T10:53:12;98915.81;;;5.33
12126;BMP180;6126;57.908;16.490;2023-01-16T10:55:42;98901.00;;;5.35
12126;BMP180;6126;57.908;16.490;2023-01-16T10:58:30;98902.53;;;5.39
12126;BMP180;6126;57.908;16.490;2023-01-16T11:01:18;98900.63;;;5.42
12126;BMP180;6126;57.908;16.490;2023-01-16T11:03:52;98892.78;;;5.44
12126;BMP180;6126;57.908;16.490;2023-01-16T11:06:21;98893.56;;;5.46
12126;BMP180;6126;57.908;16.490;2023-01-16T11:11:41;98900.41;;;5.47
12126;BMP180;6126;57.908;16.490;2023-01-16T11:20:25;98910.03;;;5.60
12126;BMP180;6126;57.908;16.490;2023-01-16T11:25:35;98909.22;;;5.59
12126;BMP180;6126;57.908;16.490;2023-01-16T11:28:07;98911.72;;;5.61
12126;BMP180;6126;57.908;16.490;2023-01-16T11:30:43;98922.00;;;5.62
12126;BMP180;6126;57.908;16.490;2023-01-16T11:33:19;98929.94;;;5.59
12126;BMP180;6126;57.908;16.490;2023-01-16T11:35:58;98921.56;;;5.54
12126;BMP180;6126;57.908;16.490;2023-01-16T11:38:29;98941.50;;;5.52
12126;BMP180;6126;57.908;16.490;2023-01-16T11:41:00;98939.69;;;5.54
12126;BMP180;6126;57.908;16.490;2023-01-16T11:43:30;98936.19;;;5.55
12126;BMP180;6126;57.908;16.490;2023-01-16T11:46:31;98946.53;;;5.55
12126;BMP180;6126;57.908;16.490;2023-01-16T11:49:13;98940.63;;;5.53
12126;BMP180;6126;57.908;16.490;2023-01-16T11:51:40;98941.50;;;5.52
12126;BMP180;6126;57.908;16.490;2023-01-16T11:54:14;98945.94;;;5.51
12126;BMP180;6126;57.908;16.490;2023-01-16T12:03:48;98950.28;;;5.50
12126;BMP180;6126;57.908;16.490;2023-01-16T12:12:33;98954.84;;;5.45
12126;BMP180;6126;57.908;16.490;2023-01-16T12:15:31;98956.53;;;5.46
12126;BMP180;6126;57.908;16.490;2023-01-16T12:29:06;98967.72;;;5.47
12126;BMP180;6126;57.908;16.490;2023-01-16T12:35:03;98973.97;;;5.43
12126;BMP180;6126;57.908;16.490;2023-01-16T12:50:15;98969.25;;;5.84
12126;BMP180;6126;57.908;16.490;2023-01-16T12:53:03;98967.66;;;5.82
12126;BMP180;6126;57.908;16.490;2023-01-16T12:58:31;98982.84;;;5.72
12126;BMP180;6126;57.908;16.490;2023-01-16T13:01:17;98979.16;;;5.76
12126;BMP180;6126;57.908;16.490;2023-01-16T13:03:53;98985.06;;;5.80
12126;BMP180;6126;57.908;16.490;2023-01-16T13:06:55;98978.16;;;5.79
12126;BMP180;6126;57.908;16.490;2023-01-16T13:12:14;98988.97;;;5.86
12126;BMP180;6126;57.908;16.490;2023-01-16T13:15:10;98985.09;;;5.95
12126;BMP180;6126;57.908;16.490;2023-01-16T13:18:03;98983.25;;;5.97
12126;BMP180;6126;57.908;16.490;2023-01-16T13:20:31;98987.25;;;5.87
12126;BMP180;6126;57.908;16.490;2023-01-16T13:23:14;98981.38;;;5.83
12126;BMP180;6126;57.908;16.490;2023-01-16T13:25:48;98983.81;;;5.86
12126;BMP180;6126;57.908;16.490;2023-01-16T13:36:58;98982.13;;;5.85
12126;BMP180;6126;57.908;16.490;2023-01-16T13:42:22;98981.91;;;5.73
12126;BMP180;6126;57.908;16.490;2023-01-16T13:44:57;98976.19;;;5.67
12126;BMP180;6126;57.908;16.490;2023-01-16T13:47:43;98986.63;;;5.65
12126;BMP180;6126;57.908;16.490;2023-01-16T13:52:56;98984.72;;;5.69
12126;BMP180;6126;57.908;16.490;2023-01-16T13:55:32;98996.75;;;5.70
12126;BMP180;6126;57.908;16.490;2023-01-16T13:58:22;98992.78;;;5.63
12126;BMP180;6126;57.908;16.490;2023-01-16T14:01:05;99001.88;;;5.54
12126;BMP180;6126;57.908;16.490;2023-01-16T14:03:36;99007.50;;;5.46
12126;BMP180;6126;57.908;16.490;2023-01-16T14:12:20;99004.38;;;5.22
12126;BMP180;6126;57.908;16.490;2023-01-16T14:15:13;99008.16;;;5.16
12126;BMP180;6126;57.908;16.490;2023-01-16T14:20:50;99006.44;;;4.98
12126;BMP180;6126;57.908;16.490;2023-01-16T14:23:31;99015.53;;;4.88
12126;BMP180;6126;57.908;16.490;2023-01-16T14:26:49;99026.28;;;4.81
12126;BMP180;6126;57.908;16.490;2023-01-16T14:29:43;99035.06;;;4.77
12126;BMP180;6126;57.908;16.490;2023-01-16T14:34:41;99037.31;;;4.66
12126;BMP180;6126;57.908;16.490;2023-01-16T14:37:23;99033.25;;;4.60
12126;BMP180;6126;57.908;16.490;2023-01-16T14:42:47;99033.59;;;4.53
12126;BMP180;6126;57.908;16.490;2023-01-16T14:45:34;99027.94;;;4.45
12126;BMP180;6126;57.908;16.490;2023-01-16T14:54:08;99039.38;;;4.02
12126;BMP180;6126;57.908;16.490;2023-01-16T14:57:15;99044.97;;;3.93
12126;BMP180;6126;57.908;16.490;2023-01-16T15:03:14;99047.72;;;3.89
12126;BMP180;6126;57.908;16.490;2023-01-16T15:05:56;99046.25;;;3.83
12126;BMP180;6126;57.908;16.490;2023-01-16T15:08:30;99053.34;;;3.78
12126;BMP180;6126;57.908;16.490;2023-01-16T15:11:07;99043.28;;;3.72
12126;BMP180;6126;57.908;16.490;2023-01-16T15:14:23;99053.00;;;3.66
12126;BMP180;6126;57.908;16.490;2023-01-16T15:22:47;99047.72;;;3.49
12126;BMP180;6126;57.908;16.490;2023-01-16T15:25:45;99052.22;;;3.44
12126;BMP180;6126;57.908;16.490;2023-01-16T15:31:45;99043.78;;;3.41
12126;BMP180;6126;57.908;16.490;2023-01-16T15:34:25;99048.09;;;3.40
12126;BMP180;6126;57.908;16.490;2023-01-16T15:36:54;99050.69;;;3.40
12126;BMP180;6126;57.908;16.490;2023-01-16T15:39:40;99049.00;;;3.39
12126;BMP180;6126;57.908;16.490;2023-01-16T15:42:19;99037.03;;;3.37
12126;BMP180;6126;57.908;16.490;2023-01-16T15:45:25;99043.97;;;3.37
12126;BMP180;6126;57.908;16.490;2023-01-16T15:51:21;99036.81;;;3.22
12126;BMP180;6126;57.908;16.490;2023-01-16T15:53:50;99040.69;;;3.12
12126;BMP180;6126;57.908;16.490;2023-01-16T15:56:25;99032.50;;;3.01
12126;BMP180;6126;57.908;16.490;2023-01-16T15:58:53;99031.13;;;2.93
12126;BMP180;6126;57.908;16.490;2023-01-16T16:01:32;99040.88;;;2.86
12126;BMP180;6126;57.908;16.490;2023-01-16T16:04:02;99040.03;;;2.86
12126;BMP180;6126;57.908;16.490;2023-01-16T16:06:30;99048.66;;;2.85
12126;BMP180;6126;57.908;16.490;2023-01-16T16:09:03;99049.44;;;2.87
12126;BMP180;6126;57.908;16.490;2023-01-16T16:11:32;99058.94;;;2.86
12126;BMP180;6126;57.908;16.490;2023-01-16T16:14:37;99054.72;;;2.84
12126;BMP180;6126;57.908;16.490;2023-01-16T16:17:33;99059.22;;;2.79
12126;BMP180;6126;57.908;16.490;2023-01-16T16:20:40;99058.72;;;2.70
12126;BMP180;6126;57.908;16.490;2023-01-16T16:23:25;99067.75;;;2.58
12126;BMP180;6126;57.908;16.490;2023-01-16T16:25:57;99072.34;;;2.50
12126;BMP180;6126;57.908;16.490;2023-01-16T16:31:36;99085.28;;;2.49
12126;BMP180;6126;57.908;16.490;2023-01-16T16:36:36;99086.63;;;2.59
12126;BMP180;6126;57.908;16.490;2023-01-16T16:39:03;99084.72;;;2.64
12126;BMP180;6126;57.908;16.490;2023-01-16T16:44:36;99075.38;;;2.61
12126;BMP180;6126;57.908;16.490;2023-01-16T16:47:14;99082.31;;;2.59
12126;BMP180;6126;57.908;16.490;2023-01-16T16:49:40;99092.63;;;2.59
12126;BMP180;6126;57.908;16.490;2023-01-16T16:54:56;99092.75;;;2.56
12126;BMP180;6126;57.908;16.490;2023-01-16T16:57:25;99092.84;;;2.53
12126;BMP180;6126;57.908;16.490;2023-01-16T16:59:53;99084.34;;;2.51
12126;BMP180;6126;57.908;16.490;2023-01-16T17:02:22;99098.13;;;2.50
12126;BMP180;6126;57.908;16.490;2023-01-16T17:04:48;99098.13;;;2.50
12126;BMP180;6126;57.908;16.490;2023-01-16T17:07:14;99102.44;;;2.50
12126;BMP180;6126;57.908;16.490;2023-01-16T17:09:40;99110.31;;;2.47
12126;BMP180;6126;57.908;16.490;2023-01-16T17:12:24;99113.94;;;2.42
12126;BMP180;6126;57.908;16.490;2023-01-16T17:14:50;99104.72;;;2.35
12126;BMP180;6126;57.908;16.490;2023-01-16T17:17:18;99098.06;;;2.29
12126;BMP180;6126;57.908;16.490;2023-01-16T17:19:45;99104.06;;;2.30
12126;BMP180;6126;57.908;16.490;2023-01-16T17:22:11;99116.03;;;2.31
12126;BMP180;6126;57.908;16.490;2023-01-16T17:24:38;99107.44;;;2.32
12126;BMP180;6126;57.908;16.490;2023-01-16T17:27:04;99114.25;;;2.33
12126;BMP180;6126;57.908;16.490;2023-01-16T17:29:35;99102.19;;;2.33
12126;BMP180;6126;57.908;16.490;2023-01-16T17:32:05;99109.88;;;2.35
12126;BMP180;6126;57.908;16.490;2023-01-16T17:34:32;99115.03;;;2.35
12126;BMP180;6126;57.908;16.490;2023-01-16T17:36:58;99107.31;;;2.35
12126;BMP180;6126;57.908;16.490;2023-01-16T17:39:25;99115.91;;;2.34
12126;BMP180;6126;57.908;16.490;2023-01-16T17:41:53;99118.56;;;2.32
12126;BMP180;6126;57.908;16.490;2023-01-16T17:44:23;99121.19;;;2.31
12126;BMP180;6126;57.908;16.490;2023-01-16T17:47:09;99116.97;;;2.28
12126;BMP180;6126;57.908;16.490;2023-01-16T17:49:35;99111.00;;;2.28
12126;BMP180;6126;57.908;16.490;2023-01-16T17:52:21;99112.78;;;2.26
12126;BMP180;6126;57.908;16.490;2023-01-16T17:54:47;99114.50;;;2.25
12126;BMP180;6126;57.908;16.490;2023-01-16T17:57:31;99112.00;;;2.24
12126;BMP180;6126;57.908;16.490;2023-01-16T17:59:58;99112.88;;;2.23
12126;BMP180;6126;57.908;16.490;2023-01-16T18:02:24;99112.03;;;2.22
12126;BMP180;6126;57.908;16.490;2023-01-16T18:04:50;99114.59;;;2.24
12126;BMP180;6126;57.908;16.490;2023-01-16T18:07:17;99111.22;;;2.22
12126;BMP180;6126;57.908;16.490;2023-01-16T18:09:43;99107.81;;;2.21
12126;BMP180;6126;57.908;16.490;2023-01-16T18:12:10;99109.53;;;2.21
12126;BMP180;6126;57.908;16.490;2023-01-16T18:14:54;99125.88;;;2.20